createdAt,value
2018-02-02T00:00:02.967Z,20.51
2018-02-02T00:01:11.897Z,20.43
2018-02-02T00:02:21.066Z,20.52
2018-02-02T00:03:29.754Z,20.57
2018-02-02T00:04:38.690Z,20.41
2018-02-02T00:05:47.892Z,20.38
2018-02-02T00:06:56.569Z,20.42
2018-02-02T00:08:05.232Z,20.52
2018-02-02T00:09:14.413Z,20.5
2018-02-02T00:10:23.319Z,20.42
2018-02-02T00:11:32.002Z,20.41
2018-02-02T00:12:40.929Z,20.48
2018-02-02T00:13:50.130Z,20.52
2018-02-02T00:14:59.311Z,20.55
2018-02-02T00:16:08.493Z,20.42
2018-02-02T00:17:17.408Z,20.48
2018-02-02T00:18:26.351Z,20.47
2018-02-02T00:19:35.522Z,20.47
2018-02-02T00:20:44.183Z,20.43
2018-02-02T00:21:53.349Z,20.42
2018-02-02T00:23:02.823Z,20.43
2018-02-02T00:24:12.017Z,20.42
2018-02-02T00:25:20.934Z,20.42
2018-02-02T00:26:29.906Z,20.41
2018-02-02T00:27:38.641Z,20.39
2018-02-02T00:28:47.894Z,20.42
2018-02-02T00:29:56.832Z,20.36
2018-02-02T00:31:05.759Z,20.43
2018-02-02T00:32:14.434Z,20.35
2018-02-02T00:33:23.109Z,20.42
2018-02-02T00:34:32.322Z,20.36
2018-02-02T00:35:40.994Z,20.47
2018-02-02T00:36:49.895Z,20.48
2018-02-02T00:37:59.067Z,20.39
2018-02-02T00:39:08.248Z,20.39
2018-02-02T00:40:17.179Z,20.38
2018-02-02T00:41:25.854Z,20.42
2018-02-02T00:42:34.817Z,20.41
2018-02-02T00:43:43.546Z,20.43
2018-02-02T00:44:52.780Z,20.48
2018-02-02T00:46:01.742Z,20.41
2018-02-02T00:47:10.435Z,20.42
2018-02-02T00:48:19.685Z,20.39
2018-02-02T00:49:29.154Z,20.38
2018-02-02T00:50:38.415Z,20.36
2018-02-02T00:51:47.377Z,20.41
2018-02-02T00:52:56.341Z,20.42
2018-02-02T00:54:05.573Z,20.39
2018-02-02T00:55:14.808Z,20.38
2018-02-02T00:56:23.767Z,20.38
2018-02-02T00:57:32.711Z,20.38
2018-02-02T00:58:41.683Z,20.31
2018-02-02T00:59:51.413Z,20.39
2018-02-02T01:01:00.360Z,20.42
2018-02-02T01:02:09.308Z,20.35
2018-02-02T01:03:18.536Z,20.35
2018-02-02T01:04:27.741Z,20.39
2018-02-02T01:05:36.685Z,20.39
2018-02-02T01:06:45.883Z,20.41
2018-02-02T01:07:55.103Z,20.39
2018-02-02T01:09:04.149Z,20.38
2018-02-02T01:10:13.069Z,20.41
2018-02-02T01:11:22.275Z,20.41
2018-02-02T01:12:30.961Z,20.41
2018-02-02T01:13:39.920Z,20.41
2018-02-02T01:14:48.891Z,20.36
2018-02-02T01:15:58.383Z,20.32
2018-02-02T01:17:07.323Z,20.32
2018-02-02T01:18:16.827Z,20.39
2018-02-02T01:19:25.778Z,20.36
2018-02-02T01:20:34.744Z,20.41
2018-02-02T01:21:43.968Z,20.38
2018-02-02T01:22:52.923Z,20.33
2018-02-02T01:24:01.884Z,20.41
2018-02-02T01:25:11.125Z,20.36
2018-02-02T01:26:20.095Z,20.36
2018-02-02T01:27:29.305Z,20.32
2018-02-02T01:28:37.992Z,20.38
2018-02-02T01:29:46.700Z,20.41
2018-02-02T01:30:55.378Z,20.32
2018-02-02T01:32:04.089Z,20.38
2018-02-02T01:33:12.778Z,20.35
2018-02-02T01:34:22.007Z,20.36
2018-02-02T01:35:31.006Z,20.33
2018-02-02T01:36:40.517Z,20.36
2018-02-02T01:37:49.230Z,20.32
2018-02-02T01:38:58.728Z,20.33
2018-02-02T01:40:07.687Z,20.32
2018-02-02T01:41:16.641Z,20.38
2018-02-02T01:42:25.602Z,20.33
2018-02-02T01:43:34.570Z,20.35
2018-02-02T01:44:43.809Z,20.36
2018-02-02T01:45:53.294Z,20.36
2018-02-02T01:47:03.043Z,20.41
2018-02-02T01:48:12.008Z,20.36
2018-02-02T01:49:21.205Z,20.36
2018-02-02T01:50:30.180Z,20.41
2018-02-02T01:51:39.659Z,20.31
2018-02-02T01:52:48.378Z,20.32
2018-02-02T01:53:57.585Z,20.32
2018-02-02T01:55:06.279Z,20.32
2018-02-02T01:56:15.524Z,20.38
2018-02-02T01:57:24.226Z,20.32
2018-02-02T01:58:33.191Z,20.35
2018-02-02T01:59:42.984Z,20.32
2018-02-02T02:00:51.927Z,20.35
2018-02-02T02:02:00.899Z,20.38
2018-02-02T02:03:09.618Z,20.33
2018-02-02T02:04:18.565Z,20.32
2018-02-02T02:05:27.771Z,20.38
2018-02-02T02:06:36.749Z,20.38
2018-02-02T02:07:45.735Z,20.28
2018-02-02T02:08:54.669Z,20.38
2018-02-02T02:10:03.371Z,20.38
2018-02-02T02:11:12.586Z,20.36
2018-02-02T02:12:21.800Z,20.42
2018-02-02T02:13:30.735Z,20.41
2018-02-02T02:14:39.411Z,20.41
2018-02-02T02:15:48.713Z,20.38
2018-02-02T02:16:57.657Z,20.43
2018-02-02T02:18:06.875Z,20.35
2018-02-02T02:19:15.822Z,20.39
2018-02-02T02:20:24.776Z,20.33
2018-02-02T02:21:33.714Z,20.36
2018-02-02T02:22:42.656Z,20.32
2018-02-02T02:23:51.897Z,20.39
2018-02-02T02:25:00.601Z,20.38
2018-02-02T02:26:09.816Z,20.41
2018-02-02T02:27:18.775Z,20.32
2018-02-02T02:28:27.763Z,20.33
2018-02-02T02:29:36.710Z,20.39
2018-02-02T02:30:46.465Z,20.39
2018-02-02T02:31:55.418Z,20.41
2018-02-02T02:33:04.628Z,20.39
2018-02-02T02:34:14.128Z,20.28
2018-02-02T02:35:23.082Z,20.39
2018-02-02T02:36:31.764Z,20.33
2018-02-02T02:37:40.975Z,20.42
2018-02-02T02:38:49.949Z,20.32
2018-02-02T02:39:59.178Z,20.28
2018-02-02T02:41:08.165Z,20.38
2018-02-02T02:42:17.136Z,20.36
2018-02-02T02:43:26.091Z,20.38
2018-02-02T02:44:34.839Z,20.33
2018-02-02T02:45:43.826Z,20.28
2018-02-02T02:46:53.056Z,20.33
2018-02-02T02:48:02.004Z,20.35
2018-02-02T02:49:10.964Z,20.29
2018-02-02T02:50:19.933Z,20.36
2018-02-02T02:51:28.641Z,20.36
2018-02-02T02:52:37.603Z,20.32
2018-02-02T02:53:46.818Z,20.35
2018-02-02T02:54:55.510Z,20.28
2018-02-02T02:56:04.474Z,20.39
2018-02-02T02:57:13.757Z,20.38
2018-02-02T02:58:23.029Z,20.33
2018-02-02T02:59:31.990Z,20.36
2018-02-02T03:00:41.207Z,20.36
2018-02-02T03:01:49.938Z,20.39
2018-02-02T03:02:59.208Z,20.31
2018-02-02T03:04:08.429Z,20.28
2018-02-02T03:05:17.383Z,20.28
2018-02-02T03:06:26.361Z,20.35
2018-02-02T03:07:35.319Z,20.28
2018-02-02T03:08:44.795Z,20.33
2018-02-02T03:09:53.487Z,20.28
2018-02-02T03:11:02.458Z,20.32
2018-02-02T03:12:11.686Z,20.28
2018-02-02T03:13:20.502Z,20.29
2018-02-02T03:14:30.011Z,20.33
2018-02-02T03:15:38.986Z,20.29
2018-02-02T03:16:48.220Z,20.36
2018-02-02T03:17:57.174Z,20.28
2018-02-02T03:19:06.142Z,20.28
2018-02-02T03:20:15.113Z,20.36
2018-02-02T03:21:24.075Z,20.38
2018-02-02T03:22:33.034Z,20.28
2018-02-02T03:23:42.263Z,20.28
2018-02-02T03:24:50.958Z,20.32
2018-02-02T03:25:59.974Z,20.32
2018-02-02T03:27:08.650Z,20.29
2018-02-02T03:28:17.917Z,20.32
2018-02-02T03:29:27.103Z,20.24
2018-02-02T03:30:36.344Z,20.31
2018-02-02T03:31:45.561Z,20.28
2018-02-02T03:32:54.778Z,20.29
2018-02-02T03:34:04.016Z,20.28
2018-02-02T03:35:12.967Z,20.36
2018-02-02T03:36:21.668Z,20.24
2018-02-02T03:37:30.361Z,20.28
2018-02-02T03:38:39.577Z,20.35
2018-02-02T03:39:48.270Z,20.23
2018-02-02T03:40:57.524Z,20.32
2018-02-02T03:42:06.485Z,20.32
2018-02-02T03:43:15.422Z,20.28
2018-02-02T03:44:24.385Z,20.32
2018-02-02T03:45:33.604Z,20.31
2018-02-02T03:46:42.816Z,20.29
2018-02-02T03:47:51.510Z,20.29
2018-02-02T03:49:00.474Z,20.21
2018-02-02T03:50:09.162Z,20.28
2018-02-02T03:51:18.131Z,20.33
2018-02-02T03:52:27.081Z,20.32
2018-02-02T03:53:35.768Z,20.28
2018-02-02T03:54:44.726Z,20.26
2018-02-02T03:55:53.415Z,20.29
2018-02-02T03:57:02.358Z,20.28
2018-02-02T03:58:11.857Z,20.2
2018-02-02T03:59:21.336Z,20.24
2018-02-02T04:00:30.690Z,20.2
2018-02-02T04:01:39.652Z,20.24
2018-02-02T04:02:48.605Z,20.32
2018-02-02T04:03:57.584Z,20.32
2018-02-02T04:05:06.837Z,20.13
2018-02-02T04:06:15.538Z,20.21
2018-02-02T04:07:24.491Z,20.32
2018-02-02T04:08:33.189Z,20.29
2018-02-02T04:09:42.665Z,20.24
2018-02-02T04:10:51.611Z,20.21
2018-02-02T04:12:00.353Z,20.23
2018-02-02T04:13:09.078Z,20.18
2018-02-02T04:14:18.055Z,20.2
2018-02-02T04:15:27.302Z,20.17
2018-02-02T04:16:36.542Z,20.13
2018-02-02T04:17:45.821Z,20.26
2018-02-02T04:18:55.307Z,20.18
2018-02-02T04:20:04.584Z,20.21
2018-02-02T04:21:13.577Z,20.17
2018-02-02T04:22:22.549Z,20.21
2018-02-02T04:23:31.247Z,20.21
2018-02-02T04:24:40.472Z,20.21
2018-02-02T04:25:49.190Z,20.16
2018-02-02T04:26:58.198Z,20.11
2018-02-02T04:28:06.909Z,20.24
2018-02-02T04:29:16.130Z,20.18
2018-02-02T04:30:25.083Z,20.16
2018-02-02T04:31:34.035Z,20.13
2018-02-02T04:32:42.991Z,20.2
2018-02-02T04:33:51.698Z,20.14
2018-02-02T04:35:00.659Z,20.21
2018-02-02T04:36:09.395Z,20.23
2018-02-02T04:37:18.340Z,20.17
2018-02-02T04:38:27.821Z,20.17
2018-02-02T04:39:36.766Z,20.17
2018-02-02T04:40:45.973Z,20.21
2018-02-02T04:41:54.987Z,20.24
2018-02-02T04:43:03.700Z,20.18
2018-02-02T04:44:12.916Z,20.2
2018-02-02T04:45:21.878Z,20.21
2018-02-02T04:46:31.095Z,20.16
2018-02-02T04:47:40.317Z,20.2
2018-02-02T04:48:49.532Z,20.21
2018-02-02T04:49:58.759Z,20.17
2018-02-02T04:51:07.737Z,20.24
2018-02-02T04:52:16.956Z,20.23
2018-02-02T04:53:26.253Z,20.08
2018-02-02T04:54:34.989Z,20.2
2018-02-02T04:55:43.970Z,20.21
2018-02-02T04:56:52.718Z,20.2
2018-02-02T04:58:01.995Z,20.16
2018-02-02T04:59:10.965Z,20.2
2018-02-02T05:00:19.925Z,20.18
2018-02-02T05:01:29.482Z,20.21
2018-02-02T05:02:38.422Z,20.21
2018-02-02T05:03:47.390Z,20.24
2018-02-02T05:04:56.371Z,20.14
2018-02-02T05:06:06.125Z,20.21
2018-02-02T05:07:15.661Z,20.17
2018-02-02T05:08:24.622Z,20.16
2018-02-02T05:09:33.580Z,20.06
2018-02-02T05:10:42.869Z,20.08
2018-02-02T05:11:52.120Z,20.21
2018-02-02T05:13:02.190Z,20.17
2018-02-02T05:14:11.457Z,20.2
2018-02-02T05:15:20.420Z,20.18
2018-02-02T05:16:29.124Z,20.08
2018-02-02T05:17:38.632Z,20.1
2018-02-02T05:18:47.873Z,20.11
2018-02-02T05:19:56.845Z,20.13
2018-02-02T05:21:06.619Z,20.11
2018-02-02T05:22:15.602Z,20.08
2018-02-02T05:23:24.556Z,20.08
2018-02-02T05:24:33.250Z,20.14
2018-02-02T05:25:42.242Z,20.13
2018-02-02T05:26:51.231Z,20.05
2018-02-02T05:28:00.252Z,20.06
2018-02-02T05:29:09.220Z,20.05
2018-02-02T05:30:18.210Z,20.06
2018-02-02T05:31:27.215Z,20.06
2018-02-02T05:32:36.207Z,20.1
2018-02-02T05:33:45.244Z,20.1
2018-02-02T05:34:54.990Z,20.1
2018-02-02T05:36:04.240Z,20.13
2018-02-02T05:37:13.240Z,20.2
2018-02-02T05:38:22.757Z,20.24
2018-02-02T05:39:32.025Z,20.23
2018-02-02T05:40:41.054Z,20.23
2018-02-02T05:41:49.760Z,20.28
2018-02-02T05:42:58.981Z,20.31
2018-02-02T05:44:07.993Z,20.48
2018-02-02T05:45:16.685Z,20.54
2018-02-02T05:46:25.692Z,20.5
2018-02-02T05:47:34.680Z,20.66
2018-02-02T05:48:43.896Z,20.7
2018-02-02T05:49:52.890Z,20.72
2018-02-02T05:51:02.447Z,20.84
2018-02-02T05:52:11.455Z,20.88
2018-02-02T05:53:20.193Z,20.87
2018-02-02T05:54:29.186Z,21.03
2018-02-02T05:55:38.429Z,20.99
2018-02-02T05:56:47.491Z,21.03
2018-02-02T05:57:56.469Z,21.14
2018-02-02T05:59:06.250Z,21.13
2018-02-02T06:00:15.217Z,21.17
2018-02-02T06:01:25.055Z,21.19
2018-02-02T06:02:33.772Z,21.28
2018-02-02T06:03:43.354Z,21.38
2018-02-02T06:04:52.345Z,21.4
2018-02-02T06:06:01.288Z,21.4
2018-02-02T06:07:10.786Z,21.37
2018-02-02T06:08:20.556Z,21.54
2018-02-02T06:09:29.584Z,21.5
2018-02-02T06:10:38.552Z,21.61
2018-02-02T06:11:47.247Z,21.61
2018-02-02T06:12:55.954Z,21.67
2018-02-02T06:14:05.469Z,21.74
2018-02-02T06:15:14.440Z,21.72
2018-02-02T06:16:23.645Z,21.82
2018-02-02T06:17:32.899Z,21.77
2018-02-02T06:18:41.862Z,21.88
2018-02-02T06:19:51.111Z,21.91
2018-02-02T06:21:00.109Z,21.9
2018-02-02T06:22:09.106Z,21.91
2018-02-02T06:23:18.342Z,21.96
2018-02-02T06:24:27.299Z,21.98
2018-02-02T06:25:36.001Z,22.06
2018-02-02T06:26:44.739Z,22.15
2018-02-02T06:27:53.712Z,22.18
2018-02-02T06:29:02.956Z,22.2
2018-02-02T06:30:12.224Z,22.18
2018-02-02T06:31:21.430Z,22.22
2018-02-02T06:32:30.687Z,22.27
2018-02-02T06:33:39.919Z,22.37
2018-02-02T06:34:48.623Z,22.39
2018-02-02T06:35:57.577Z,22.42
2018-02-02T06:37:06.863Z,22.43
2018-02-02T06:38:15.578Z,22.52
2018-02-02T06:39:24.785Z,22.52
2018-02-02T06:40:33.509Z,22.6
2018-02-02T06:41:42.485Z,22.65
2018-02-02T06:42:51.518Z,22.65
2018-02-02T06:44:00.251Z,22.67
2018-02-02T06:45:08.961Z,22.67
2018-02-02T06:46:18.488Z,22.68
2018-02-02T06:47:27.209Z,22.7
2018-02-02T06:48:36.441Z,22.76
2018-02-02T06:52:18.024Z,22.85
2018-02-02T06:53:26.975Z,22.85
2018-02-02T06:54:35.920Z,22.85
2018-02-02T06:55:45.176Z,22.88
2018-02-02T06:56:53.887Z,22.88
2018-02-02T06:58:02.580Z,22.92
2018-02-02T06:59:11.260Z,22.94
2018-02-02T07:00:20.474Z,22.9
2018-02-02T07:01:29.718Z,22.88
2018-02-02T07:02:38.421Z,22.91
2018-02-02T07:03:47.672Z,22.91
2018-02-02T07:04:57.674Z,22.9
2018-02-02T07:06:07.434Z,22.86
2018-02-02T07:07:16.411Z,22.91
2018-02-02T07:08:25.625Z,22.9
2018-02-02T07:09:34.616Z,22.85
2018-02-02T07:10:43.840Z,22.79
2018-02-02T07:11:52.837Z,22.77
2018-02-02T07:13:01.559Z,22.82
2018-02-02T07:14:10.287Z,22.76
2018-02-02T07:15:19.527Z,22.73
2018-02-02T07:16:28.768Z,22.75
2018-02-02T07:17:37.994Z,22.72
2018-02-02T07:18:46.709Z,22.67
2018-02-02T07:19:55.686Z,22.57
2018-02-02T07:21:04.403Z,22.61
2018-02-02T07:22:13.107Z,22.58
2018-02-02T07:23:22.062Z,22.68
2018-02-02T07:24:31.032Z,22.58
2018-02-02T07:25:39.988Z,22.47
2018-02-02T07:26:49.217Z,22.55
2018-02-02T07:27:58.452Z,22.55
2018-02-02T07:29:07.252Z,22.57
2018-02-02T07:30:16.492Z,22.4
2018-02-02T07:31:25.472Z,22.45
2018-02-02T07:32:34.951Z,22.39
2018-02-02T07:33:43.976Z,22.35
2018-02-02T07:34:52.718Z,22.3
2018-02-02T07:36:01.737Z,22.27
2018-02-02T07:37:10.972Z,22.28
2018-02-02T07:38:20.481Z,22.22
2018-02-02T07:39:29.958Z,22.2
2018-02-02T07:40:38.937Z,22.22
2018-02-02T07:41:47.895Z,22.2
2018-02-02T07:42:57.113Z,22.12
2018-02-02T07:44:06.607Z,22.06
2018-02-02T07:45:15.577Z,22.03
2018-02-02T07:46:24.543Z,22
2018-02-02T07:47:33.509Z,22
2018-02-02T07:48:42.477Z,21.94
2018-02-02T07:49:51.176Z,21.99
2018-02-02T07:51:00.951Z,21.91
2018-02-02T07:52:10.418Z,21.86
2018-02-02T07:53:19.618Z,21.9
2018-02-02T07:54:28.315Z,21.9
2018-02-02T07:55:37.272Z,21.77
2018-02-02T07:56:47.030Z,21.84
2018-02-02T07:57:56.042Z,21.75
2018-02-02T07:59:05.797Z,21.84
2018-02-02T08:00:15.073Z,21.83
2018-02-02T08:01:24.581Z,21.74
2018-02-02T08:02:33.588Z,21.72
2018-02-02T08:03:43.112Z,21.72
2018-02-02T08:04:52.610Z,21.74
2018-02-02T08:06:01.350Z,21.75
2018-02-02T08:07:10.366Z,21.64
2018-02-02T08:08:19.615Z,21.69
2018-02-02T08:09:28.622Z,21.65
2018-02-02T08:10:38.422Z,21.62
2018-02-02T08:11:47.910Z,21.61
2018-02-02T08:12:57.143Z,21.54
2018-02-02T08:14:06.963Z,21.56
2018-02-02T08:15:15.684Z,21.53
2018-02-02T08:16:24.915Z,21.56
2018-02-02T08:17:33.699Z,21.54
2018-02-02T08:18:42.663Z,21.5
2018-02-02T08:19:51.887Z,21.47
2018-02-02T08:21:00.622Z,21.52
2018-02-02T08:22:09.598Z,21.47
2018-02-02T08:23:18.614Z,21.49
2018-02-02T08:24:27.824Z,21.43
2018-02-02T08:25:36.801Z,21.44
2018-02-02T08:26:46.049Z,21.46
2018-02-02T08:27:55.298Z,21.42
2018-02-02T08:29:04.569Z,21.4
2018-02-02T08:30:13.878Z,21.4
2018-02-02T08:31:22.857Z,21.34
2018-02-02T08:32:31.547Z,21.42
2018-02-02T08:33:40.497Z,21.34
2018-02-02T08:34:49.790Z,21.32
2018-02-02T08:35:58.786Z,21.31
2018-02-02T08:37:08.069Z,21.29
2018-02-02T08:38:16.769Z,21.25
2018-02-02T08:39:26.025Z,21.22
2018-02-02T08:40:34.740Z,21.22
2018-02-02T08:41:43.473Z,21.22
2018-02-02T08:42:52.489Z,21.25
2018-02-02T08:44:01.989Z,21.27
2018-02-02T08:45:11.433Z,21.21
2018-02-02T08:46:20.384Z,21.27
2018-02-02T08:47:29.900Z,21.22
2018-02-02T08:48:38.652Z,21.19
2018-02-02T08:49:47.693Z,21.24
2018-02-02T08:50:57.208Z,21.16
2018-02-02T08:52:06.453Z,21.14
2018-02-02T08:53:15.420Z,21.21
2018-02-02T08:54:24.184Z,21.16
2018-02-02T08:55:33.403Z,21.13
2018-02-02T08:56:42.379Z,21.17
2018-02-02T08:57:51.412Z,21.13
2018-02-02T08:59:00.925Z,21.16
2018-02-02T09:00:10.187Z,21.13
2018-02-02T09:01:19.406Z,21.09
2018-02-02T09:02:28.423Z,21.1
2018-02-02T09:03:37.927Z,21.13
2018-02-02T09:04:46.926Z,21.1
2018-02-02T09:05:56.194Z,21.13
2018-02-02T09:07:05.195Z,21.13
2018-02-02T09:08:13.915Z,21.09
2018-02-02T09:09:22.883Z,21.16
2018-02-02T09:10:31.838Z,21.07
2018-02-02T09:11:41.336Z,21.03
2018-02-02T09:12:50.323Z,21.14
2018-02-02T09:13:59.548Z,21.12
2018-02-02T09:15:08.247Z,21.09
2018-02-02T09:16:17.238Z,21.09
2018-02-02T09:17:25.998Z,21.03
2018-02-02T09:18:35.233Z,21.07
2018-02-02T09:19:44.225Z,21.06
2018-02-02T09:20:53.467Z,21.03
2018-02-02T09:22:02.970Z,21.04
2018-02-02T09:23:12.463Z,21.13
2018-02-02T09:24:21.425Z,21.07
2018-02-02T09:25:30.377Z,21.07
2018-02-02T09:26:39.602Z,21.06
2018-02-02T09:27:48.815Z,21.04
2018-02-02T09:28:57.806Z,21.1
2018-02-02T09:30:06.773Z,21.07
2018-02-02T09:31:15.736Z,21.12
2018-02-02T09:32:24.691Z,21.09
2018-02-02T09:33:34.184Z,21.07
2018-02-02T09:34:43.166Z,21.01
2018-02-02T09:35:51.866Z,21.09
2018-02-02T09:37:01.106Z,21.01
2018-02-02T09:38:10.090Z,21.03
2018-02-02T09:39:19.153Z,21.06
2018-02-02T09:40:28.393Z,21.07
2018-02-02T09:41:37.615Z,21.03
2018-02-02T09:42:46.839Z,21.01
2018-02-02T09:43:56.080Z,21.03
2018-02-02T09:45:05.017Z,21.03
2018-02-02T09:46:14.003Z,21.06
2018-02-02T09:47:22.972Z,21.03
2018-02-02T09:48:31.955Z,21.06
2018-02-02T09:49:40.938Z,21.04
2018-02-02T09:50:49.923Z,21.09
2018-02-02T09:51:58.895Z,21.1
2018-02-02T09:53:07.897Z,21.06
2018-02-02T09:54:16.680Z,21.09
2018-02-02T09:55:25.887Z,21.03
2018-02-02T09:56:35.131Z,21.06
2018-02-02T09:57:44.369Z,21.06
2018-02-02T09:58:53.620Z,20.98
2018-02-02T10:00:02.586Z,21.03
2018-02-02T10:01:11.832Z,20.92
2018-02-02T10:02:20.781Z,20.94
2018-02-02T10:03:29.765Z,21.03
2018-02-02T10:04:38.768Z,20.97
2018-02-02T10:05:47.769Z,20.94
2018-02-02T10:06:56.720Z,20.94
2018-02-02T10:08:06.009Z,20.99
2018-02-02T10:09:14.742Z,20.89
2018-02-02T10:10:23.724Z,20.95
2018-02-02T10:11:32.442Z,20.98
2018-02-02T10:12:41.681Z,20.99
2018-02-02T10:13:51.189Z,20.99
2018-02-02T10:15:00.197Z,20.97
2018-02-02T10:16:09.238Z,20.94
2018-02-02T10:17:18.716Z,21.01
2018-02-02T10:18:27.961Z,20.95
2018-02-02T10:19:37.452Z,20.94
2018-02-02T10:20:46.146Z,21.03
2018-02-02T10:21:55.379Z,20.97
2018-02-02T10:23:04.853Z,21.03
2018-02-02T10:24:14.065Z,20.97
2018-02-02T10:25:23.309Z,20.94
2018-02-02T10:26:32.536Z,21.01
2018-02-02T10:27:41.758Z,20.95
2018-02-02T10:28:51.006Z,20.92
2018-02-02T10:30:00.296Z,20.94
2018-02-02T10:31:09.514Z,20.95
2018-02-02T10:32:18.990Z,20.95
2018-02-02T10:33:27.970Z,20.98
2018-02-02T10:34:36.678Z,20.99
2018-02-02T10:35:45.663Z,20.95
2018-02-02T10:36:54.612Z,20.91
2018-02-02T10:38:03.335Z,20.97
2018-02-02T10:39:12.302Z,20.94
2018-02-02T10:40:21.005Z,20.94
2018-02-02T10:41:30.234Z,20.94
2018-02-02T10:42:38.952Z,20.94
2018-02-02T10:43:48.178Z,20.95
2018-02-02T10:44:57.920Z,20.98
2018-02-02T10:46:06.627Z,20.99
2018-02-02T10:47:15.849Z,20.99
2018-02-02T10:48:24.824Z,20.95
2018-02-02T10:49:33.780Z,20.97
2018-02-02T10:50:42.738Z,20.99
2018-02-02T10:51:52.216Z,20.98
2018-02-02T10:53:01.421Z,21.03
2018-02-02T10:54:10.637Z,20.99
2018-02-02T10:55:19.628Z,20.95
2018-02-02T10:56:28.328Z,20.92
2018-02-02T10:57:37.831Z,20.92
2018-02-02T10:58:46.788Z,20.98
2018-02-02T10:59:55.764Z,20.92
2018-02-02T11:01:05.240Z,20.95
2018-02-02T11:02:14.472Z,21.04
2018-02-02T11:03:23.693Z,20.97
2018-02-02T11:04:32.404Z,20.94
2018-02-02T11:05:41.441Z,20.98
2018-02-02T11:06:50.426Z,20.98
2018-02-02T11:07:59.648Z,20.92
2018-02-02T11:09:08.344Z,20.91
2018-02-02T11:10:17.330Z,20.91
2018-02-02T11:11:26.544Z,20.95
2018-02-02T11:12:35.564Z,20.95
2018-02-02T11:13:44.546Z,20.92
2018-02-02T11:14:53.504Z,20.92
2018-02-02T11:16:02.479Z,20.95
2018-02-02T11:17:11.431Z,20.95
2018-02-02T11:18:20.384Z,20.91
2018-02-02T11:19:29.635Z,20.88
2018-02-02T11:20:38.353Z,20.95
2018-02-02T11:21:47.312Z,20.92
2018-02-02T11:22:56.295Z,20.89
2018-02-02T11:24:05.287Z,20.94
2018-02-02T11:25:14.344Z,20.92
2018-02-02T11:26:23.285Z,20.95
2018-02-02T11:27:32.767Z,20.91
2018-02-02T11:28:42.241Z,20.95
2018-02-02T11:29:50.931Z,20.92
2018-02-02T11:31:00.402Z,20.89
2018-02-02T11:32:09.152Z,20.94
2018-02-02T11:33:17.845Z,20.99
2018-02-02T11:34:26.557Z,20.99
2018-02-02T11:35:36.043Z,20.95
2018-02-02T11:36:45.261Z,20.92
2018-02-02T11:37:54.717Z,20.97
2018-02-02T11:39:04.223Z,20.97
2018-02-02T11:40:12.917Z,20.99
2018-02-02T11:41:22.160Z,21.06
2018-02-02T11:42:31.394Z,21.03
2018-02-02T11:43:40.086Z,21.01
2018-02-02T11:44:49.062Z,21.01
2018-02-02T11:45:57.778Z,21.04
2018-02-02T11:47:07.538Z,21.06
2018-02-02T11:48:16.219Z,21.19
2018-02-02T11:49:24.924Z,21.06
2018-02-02T11:50:33.653Z,21.16
2018-02-02T11:51:42.654Z,21.1
2018-02-02T11:52:51.859Z,21.13
2018-02-02T11:54:00.539Z,21.14
2018-02-02T11:55:09.762Z,21.16
2018-02-02T11:56:18.764Z,21.14
2018-02-02T11:57:28.250Z,21.17
2018-02-02T11:58:37.717Z,21.13
2018-02-02T11:59:46.680Z,21.14
2018-02-02T12:00:56.161Z,21.17
2018-02-02T12:02:05.377Z,21.19
2018-02-02T12:03:14.087Z,21.24
2018-02-02T12:04:23.886Z,21.27
2018-02-02T12:05:32.575Z,21.24
2018-02-02T12:06:41.561Z,21.22
2018-02-02T12:07:50.510Z,21.24
2018-02-02T12:08:59.458Z,21.14
2018-02-02T12:10:08.156Z,21.22
2018-02-02T12:11:17.144Z,21.25
2018-02-02T12:12:26.175Z,21.22
2018-02-02T12:13:34.900Z,21.19
2018-02-02T12:14:43.854Z,21.19
2018-02-02T12:15:53.134Z,21.14
2018-02-02T12:17:01.855Z,21.24
2018-02-02T12:18:10.618Z,21.13
2018-02-02T12:19:19.840Z,21.16
2018-02-02T12:20:29.054Z,21.13
2018-02-02T12:21:38.299Z,21.13
2018-02-02T12:22:47.253Z,21.13
2018-02-02T12:23:56.240Z,21.13
2018-02-02T12:25:06.260Z,21.12
2018-02-02T12:26:15.463Z,21.17
2018-02-02T12:27:24.455Z,21.14
2018-02-02T12:28:33.970Z,21.16
2018-02-02T12:29:43.195Z,21.16
2018-02-02T12:30:52.406Z,21.16
2018-02-02T12:32:01.460Z,21.16
2018-02-02T12:33:10.217Z,21.25
2018-02-02T12:34:19.191Z,21.19
2018-02-02T12:35:28.141Z,21.12
2018-02-02T12:36:36.841Z,21.21
2018-02-02T12:37:46.071Z,21.16
2018-02-02T12:38:55.066Z,21.19
2018-02-02T12:40:03.784Z,21.14
2018-02-02T12:41:13.031Z,21.16
2018-02-02T12:42:22.042Z,21.14
2018-02-02T12:43:31.267Z,21.14
2018-02-02T12:44:39.954Z,21.16
2018-02-02T12:45:48.919Z,21.13
2018-02-02T12:46:57.647Z,21.14
2018-02-02T12:48:06.339Z,21.16
2018-02-02T12:49:15.890Z,21.16
2018-02-02T12:50:25.143Z,21.1
2018-02-02T12:51:34.186Z,21.03
2018-02-02T12:52:42.874Z,21.04
2018-02-02T12:53:51.830Z,21.13
2018-02-02T12:55:00.515Z,21.1
2018-02-02T12:56:09.994Z,21.09
2018-02-02T12:57:19.219Z,21.06
2018-02-02T12:58:27.930Z,21.06
2018-02-02T12:59:37.146Z,21.07
2018-02-02T13:00:46.145Z,21.04
2018-02-02T13:01:55.683Z,20.95
2018-02-02T13:03:04.370Z,20.98
2018-02-02T13:04:13.323Z,20.94
2018-02-02T13:05:23.078Z,20.92
2018-02-02T13:06:32.094Z,20.98
2018-02-02T13:07:41.145Z,20.95
2018-02-02T13:08:50.362Z,20.92
2018-02-02T13:09:59.321Z,20.95
2018-02-02T13:11:08.297Z,20.98
2018-02-02T13:12:17.025Z,20.95
2018-02-02T13:13:26.304Z,20.97
2018-02-02T13:14:35.323Z,20.95
2018-02-02T13:15:44.004Z,20.94
2018-02-02T13:16:53.041Z,20.89
2018-02-02T13:18:02.537Z,20.85
2018-02-02T13:19:12.153Z,20.91
2018-02-02T13:20:21.119Z,20.87
2018-02-02T13:21:30.144Z,20.89
2018-02-02T13:22:39.116Z,20.89
2018-02-02T13:23:48.071Z,20.88
2018-02-02T13:24:57.817Z,20.91
2018-02-02T13:26:07.058Z,20.84
2018-02-02T13:27:16.054Z,20.88
2018-02-02T13:28:25.051Z,20.87
2018-02-02T13:29:34.038Z,20.84
2018-02-02T13:30:43.004Z,20.8
2018-02-02T13:31:51.967Z,20.85
2018-02-02T13:33:00.918Z,20.88
2018-02-02T13:34:09.608Z,20.82
2018-02-02T13:35:18.558Z,20.87
2018-02-02T13:36:27.276Z,20.84
2018-02-02T13:37:36.847Z,20.74
2018-02-02T13:38:45.612Z,20.82
2018-02-02T13:39:54.326Z,20.76
2018-02-02T13:41:03.554Z,20.77
2018-02-02T13:42:12.795Z,20.79
2018-02-02T13:43:21.759Z,20.77
2018-02-02T13:44:31.016Z,20.84
2018-02-02T13:45:39.749Z,20.8
2018-02-02T13:46:48.709Z,20.74
2018-02-02T13:47:58.196Z,20.76
2018-02-02T13:49:06.884Z,20.76
2018-02-02T13:50:15.835Z,20.82
2018-02-02T13:51:24.533Z,20.79
2018-02-02T13:52:33.739Z,20.79
2018-02-02T13:53:42.948Z,20.85
2018-02-02T13:54:51.902Z,20.79
2018-02-02T13:56:00.598Z,20.76
2018-02-02T13:57:09.274Z,20.8
2018-02-02T13:58:18.217Z,20.89
2018-02-02T13:59:27.468Z,20.77
2018-02-02T14:00:36.169Z,20.77
2018-02-02T14:01:45.130Z,20.77
2018-02-02T14:02:53.839Z,20.73
2018-02-02T14:04:02.802Z,20.79
2018-02-02T14:05:12.041Z,20.8
2018-02-02T14:06:20.817Z,20.77
2018-02-02T14:07:30.027Z,20.77
2018-02-02T14:08:39.499Z,20.88
2018-02-02T14:09:48.187Z,20.85
2018-02-02T14:10:57.119Z,20.8
2018-02-02T14:12:06.331Z,20.8
2018-02-02T14:13:15.354Z,20.77
2018-02-02T14:14:24.592Z,20.79
2018-02-02T14:15:33.595Z,20.84
2018-02-02T14:16:43.383Z,20.82
2018-02-02T14:17:52.336Z,20.84
2018-02-02T14:19:01.553Z,20.85
2018-02-02T14:20:10.807Z,20.87
2018-02-02T14:21:20.284Z,20.77
2018-02-02T14:22:28.995Z,20.76
2018-02-02T14:23:38.275Z,20.79
2018-02-02T14:24:47.506Z,20.77
2018-02-02T14:25:56.735Z,20.82
2018-02-02T14:27:05.998Z,20.79
2018-02-02T14:28:15.015Z,20.8
2018-02-02T14:29:23.967Z,20.8
2018-02-02T14:30:32.941Z,20.77
2018-02-02T14:31:41.902Z,20.79
2018-02-02T14:32:50.611Z,20.77
2018-02-02T14:33:59.855Z,20.85
2018-02-02T14:35:08.813Z,20.77
2018-02-02T14:36:17.778Z,20.77
2018-02-02T14:37:27.242Z,20.82
2018-02-02T14:38:36.739Z,20.64
2018-02-02T14:39:46.214Z,20.69
2018-02-02T14:40:55.187Z,20.72
2018-02-02T14:42:04.405Z,20.72
2018-02-02T14:43:14.141Z,20.82
2018-02-02T14:44:23.123Z,20.76
2018-02-02T14:45:32.327Z,20.72
2018-02-02T14:46:41.039Z,20.69
2018-02-02T14:47:50.271Z,20.76
2018-02-02T14:48:59.524Z,20.77
2018-02-02T14:50:08.227Z,20.69
2018-02-02T14:51:17.312Z,20.64
2018-02-02T14:52:26.551Z,20.67
2018-02-02T14:53:35.772Z,20.7